x

Boston 16 Nm East Of Boston, Ma (44013) Wave Buoy

7:50am - Wed 1st Jul 2015 All times are EDT. -4 hours from GMT.

  • Sig Wave height 2.6ft
  • Swell Direction
  • Peak Period 7s
  • Average Period 4s
  • Wind
    11mph, 16mph gusts
  • Sea Temp 58°f
  • Air Temp 61°f
  • Sea Pressure 1011.8mb
  • Boston 16 Nm East Of Boston, Ma
  • Boston 16 Nm East Of Boston, Ma

More Historic Weather Station data

Upgrade to MSW Pro to gain access to the past 30 days of data for over 8000 Wavebouys and Weather Stations around the globe.

Join Pro

Comparision Forecast

View Surf forecast
   
Wed 07/01 7:50am 2.5ft 7s 4s 11 16 mph 1011.8mb 58f 61f
6:50am 2.5ft 8s 4s 13 16 mph 1011.7mb 58f 61f
5:50am 2ft 8s 5s 13 16 mph 1011.1mb 58f 61f
4:50am 1.6ft 8s 4s 11 13 mph 1012.4mb 59f 61f
3:50am 1.6ft 9s 5s 11 13 mph 1012.5mb 59f 61f
2:50am 1.6ft 9s 6s 11
mph
1012.9mb 59f 61f
1:50am 1.6ft 9s 5s 9 11 mph 1013.8mb 59f 61f
12:50am 1.6ft 9s 6s 7 9 mph 1014.3mb 60f 62f
Tue 06/30 11:50pm 1.6ft 9s 5s 7
mph
1014.7mb 61f 62f
10:50pm 2.5ft 9s 5s 7
mph
1015.1mb 61f 63f
9:50pm 2.5ft 8s 5s 11
mph
1015mb 61f 65f
8:50pm 2.5ft 9s 6s 11 13 mph 1014.2mb 62f 65f
7:50pm 3ft 9s 6s 11
mph
1013.8mb 62f 66f
6:50pm 2.5ft 8s 6s 9 11 mph 1013.9mb 61f 64f
5:50pm 2.5ft 8s 6s 9 11 mph 1014.2mb 61f 63f
4:50pm 2.5ft 8s 6s 13 16 mph 1014.7mb 61f 64f
3:50pm 2.5ft 9s 7s 13 16 mph 1014.9mb 61f 64f
2:50pm 2.5ft 8s 7s 9 11 mph 1015.5mb 62f 64f
1:50pm 2ft 9s 7s 9
mph
1015.4mb 62f 63f
12:50pm 2ft 9s 7s 7 9 mph 1015.8mb 64f 64f
11:50am 2.5ft 10s 8s 4
mph
1016.1mb 63f 64f
10:50am 2.5ft 9s 7s 4
mph
1016mb 61f 64f
9:50am 2.5ft 8s 7s 2 4 mph 1015.9mb 60f 64f
8:50am 2.5ft 10s 7s  -  mph 1016.3mb 60f 63f
7:50am 2.5ft 9s 7s 2 7 mph 1016.1mb 59f 61f
6:50am 2.5ft 9s 7s 7
mph
1015.4mb 59f 61f
5:50am 2.5ft 9s 7s 7 9 mph 1015.2mb 59f 60f
4:50am 2.5ft 8s 7s 7 9 mph 1015.1mb 59f 60f
3:50am 2.5ft 9s 7s 9
mph
1014.9mb 60f 61f
2:50am 3ft 9s 7s 11 13 mph 1014.3mb 60f 62f
1:50am 3ft 9s 7s 11
mph
1014.1mb 60f 62f
12:50am 3ft 9s 7s 9 11 mph 1013.8mb 60f 63f
Mon 06/29 11:50pm 3.5ft 9s 7s 9 11 mph 1013.6mb 60f 63f
10:50pm 3ft 9s 7s 11 13 mph 1013mb 60f 63f
9:50pm 3ft 9s 7s 9
mph
1012.8mb 59f 62f
8:50pm 3.5ft 9s 7s 7 9 mph 1012mb 59f 64f
7:50pm 3.5ft 9s 7s 9 11 mph 1012mb 59f 64f
6:50pm 3.5ft 9s 7s 9
mph
1011.6mb 59f 62f
5:50pm 3.5ft 8s 7s 9 11 mph 1011.2mb 60f 62f
4:50pm 3.5ft 9s 7s 7 9 mph 1011.2mb 61f 61f
3:50pm 3.5ft 9s 8s 7 9 mph 1011.1mb 61f 60f
2:50pm 3.5ft 9s 8s 11 13 mph 1011.1mb 61f 60f
1:50pm 4ft 9s 8s 4 7 mph 1011mb 61f 59f
12:50pm 3.5ft 9s 7s 2 4 mph 1011.4mb 60f 58f
11:50am 3.5ft 10s 7s 7 9 mph 1011.2mb 58f 56f
10:50am 3.5ft 9s 7s 2
mph
1010.7mb 58f 56f
9:50am 4.5ft 9s 7s 4 7 mph 1010.5mb 58f 56f
8:50am 4.5ft 10s 6s 4 7 mph 1010.4mb 58f 55f
7:50am 5.5ft 10s 7s 4 7 mph 1010.4mb 58f 55f
6:50am 5ft 9s 7s 7 9 mph 1010.1mb 58f 55f
5:50am 6ft 9s 7s 7
mph
1010mb 58f 55f
4:50am 6ft 10s 7s 2 4 mph 1009.4mb 58f 55f
3:50am 6ft 10s 7s 2 4 mph 1008.8mb 58f 54f
2:50am 6.5ft 9s 7s 4 7 mph 1008.4mb 58f 54f
1:50am 6ft 9s 6s 7 9 mph 1008.5mb 58f 54f
12:50am 6.5ft 9s 6s 11 13 mph 1008mb 58f 53f
Sun 06/28 11:50pm 7.5ft 9s 6s 13 18 mph 1008mb 57f 53f
10:50pm 7ft 10s 6s 18 22 mph 1007.9mb 57f 53f
9:50pm 8ft 9s 6s 18 25 mph 1007.2mb 58f 53f
8:50pm 8ft 9s 6s 20 25 mph 1006.3mb 57f 54f
7:50pm 9ft 9s 6s 22 25 mph 1005.3mb 57f 55f
6:50pm 9ft 9s 6s 22 27 mph 1004.9mb 57f 55f
5:50pm 8ft 8s 6s 22 27 mph 1004.3mb 57f 56f
4:50pm 8.5ft 9s 6s 22 27 mph 1004mb 57f 56f
3:50pm 9.5ft 9s 7s 20 22 mph 1004.3mb 57f 57f
2:50pm 9ft 9s 7s 18 22 mph 1004.5mb 57f 57f
1:50pm 11ft 8s 7s 18 20 mph 1004.6mb 57f 57f
12:50pm 10ft 9s 7s 18 22 mph 1005.2mb 57f 58f
11:50am 10ft 8s 6s 22 29 mph 1005.6mb 58f 58f
10:50am 11ft 8s 6s 16 22 mph 1007mb 58f 59f
9:50am 10.5ft 7s 6s 22 31 mph 1007.1mb 58f 59f
8:50am 7.5ft 6s 5s 34 45 mph 1006.6mb 59f 60f
7:50am 7ft 6s 5s 31 38 mph 1007.9mb 59f 59f
6:50am 5.5ft 6s 5s 27 34 mph 1009.5mb 60f 60f
5:50am 5ft 5s 4s 31 36 mph 1010.5mb 60f 60f
4:50am 4.5ft 5s 4s 29 38 mph 1011.8mb 61f 59f
3:50am 4ft 5s 4s 27 34 mph 1013.4mb 61f 59f
2:50am 3ft 4s 4s 25 31 mph 1015.3mb 62f 59f
1:50am 2.5ft 4s 4s 20 22 mph 1017mb 62f 60f
12:50am 2.5ft 4s 4s 18 20 mph 1018mb 62f 60f
Sat 06/27 11:50pm 2ft 4s 3s 16 18 mph 1019.1mb 62f 61f
10:50pm 1.6ft 3s 3s 13 16 mph 1020.1mb 62f 60f
9:50pm 1.6ft 4s 3s 13 16 mph 1020.8mb 62f 61f
8:50pm 2ft 3s 3s 16 18 mph 1020.5mb 62f 61f
7:50pm 1.6ft 3s 3s 16 20 mph 1020.5mb 62f 61f
6:50pm 1.6ft 3s 3s 13 16 mph 1020.6mb 62f 61f
5:50pm 1.3ft 3s 3s 13
mph
1021.3mb 62f 62f
4:50pm 1.3ft 9s 3s 16
mph
1021.5mb 62f 62f
3:50pm 1.3ft 8s 3s 16 18 mph 1021.7mb 62f 62f
2:50pm 1ft 8s 4s 13 16 mph 1021.5mb 63f 62f
1:50pm 1ft 8s 4s 9 11 mph 1021.4mb 63f 62f
12:50pm 1ft 9s 4s 7 9 mph 1021.7mb 63f 62f